sensor_id;sensor_type;location;lat;lon;timestamp;temperature;humidity
34726;DHT22;20951;50.818;4.344;2022-10-22T00:02:06;16.00;99.90
34726;DHT22;20951;50.818;4.344;2022-10-22T00:04:33;16.00;99.90
34726;DHT22;20951;50.818;4.344;2022-10-22T00:06:59;16.00;99.90
34726;DHT22;20951;50.818;4.344;2022-10-22T00:09:25;16.00;99.90
34726;DHT22;20951;50.818;4.344;2022-10-22T00:11:51;15.90;99.90
34726;DHT22;20951;50.818;4.344;2022-10-22T00:14:17;16.00;99.90
34726;DHT22;20951;50.818;4.344;2022-10-22T00:16:43;16.00;99.90
34726;DHT22;20951;50.818;4.344;2022-10-22T00:19:09;16.00;99.90
34726;DHT22;20951;50.818;4.344;2022-10-22T00:21:37;15.90;99.90
34726;DHT22;20951;50.818;4.344;2022-10-22T00:24:03;16.00;99.90
34726;DHT22;20951;50.818;4.344;2022-10-22T00:26:29;16.00;99.90
34726;DHT22;20951;50.818;4.344;2022-10-22T00:28:55;15.90;99.90
34726;DHT22;20951;50.818;4.344;2022-10-22T00:31:21;15.90;99.90
34726;DHT22;20951;50.818;4.344;2022-10-22T00:33:47;15.90;99.90
34726;DHT22;20951;50.818;4.344;2022-10-22T00:36:15;15.90;99.90
34726;DHT22;20951;50.818;4.344;2022-10-22T00:38:41;15.80;99.90
34726;DHT22;20951;50.818;4.344;2022-10-22T00:41:07;15.90;99.90
34726;DHT22;20951;50.818;4.344;2022-10-22T00:43:33;15.90;99.90
34726;DHT22;20951;50.818;4.344;2022-10-22T00:46:17;15.90;99.90
34726;DHT22;20951;50.818;4.344;2022-10-22T00:48:43;15.80;99.90
34726;DHT22;20951;50.818;4.344;2022-10-22T00:51:09;15.90;99.90
34726;DHT22;20951;50.818;4.344;2022-10-22T00:53:42;15.90;99.90
34726;DHT22;20951;50.818;4.344;2022-10-22T00:56:09;16.00;99.90
34726;DHT22;20951;50.818;4.344;2022-10-22T00:58:41;15.90;99.90
34726;DHT22;20951;50.818;4.344;2022-10-22T01:01:12;16.00;99.90
34726;DHT22;20951;50.818;4.344;2022-10-22T01:03:39;15.90;99.90
34726;DHT22;20951;50.818;4.344;2022-10-22T01:06:06;15.90;99.90
34726;DHT22;20951;50.818;4.344;2022-10-22T01:14:05;16.00;99.90
34726;DHT22;20951;50.818;4.344;2022-10-22T01:16:58;16.00;99.90
34726;DHT22;20951;50.818;4.344;2022-10-22T01:29:52;15.80;99.90
34726;DHT22;20951;50.818;4.344;2022-10-22T01:32:22;15.80;99.90
34726;DHT22;20951;50.818;4.344;2022-10-22T01:34:54;15.80;99.90
34726;DHT22;20951;50.818;4.344;2022-10-22T01:37:23;15.80;99.90
34726;DHT22;20951;50.818;4.344;2022-10-22T01:39:51;15.80;99.90
34726;DHT22;20951;50.818;4.344;2022-10-22T01:42:17;15.70;99.90
34726;DHT22;20951;50.818;4.344;2022-10-22T01:44:43;15.70;99.90
34726;DHT22;20951;50.818;4.344;2022-10-22T01:56:00;15.70;99.90
34726;DHT22;20951;50.818;4.344;2022-10-22T01:58:53;15.70;99.90
34726;DHT22;20951;50.818;4.344;2022-10-22T02:06:41;15.70;99.90
34726;DHT22;20951;50.818;4.344;2022-10-22T02:09:08;15.70;99.90
34726;DHT22;20951;50.818;4.344;2022-10-22T02:11:35;15.70;99.90
34726;DHT22;20951;50.818;4.344;2022-10-22T02:14:02;15.70;99.90
34726;DHT22;20951;50.818;4.344;2022-10-22T02:16:40;15.60;99.90
34726;DHT22;20951;50.818;4.344;2022-10-22T02:21:44;15.60;99.90
34726;DHT22;20951;50.818;4.344;2022-10-22T02:24:11;15.50;99.90
34726;DHT22;20951;50.818;4.344;2022-10-22T02:27:18;15.50;99.90
34726;DHT22;20951;50.818;4.344;2022-10-22T02:30:04;15.60;99.90
34726;DHT22;20951;50.818;4.344;2022-10-22T02:32:39;15.60;99.90
34726;DHT22;20951;50.818;4.344;2022-10-22T02:35:07;15.60;99.90
34726;DHT22;20951;50.818;4.344;2022-10-22T02:37:35;15.60;99.90
34726;DHT22;20951;50.818;4.344;2022-10-22T02:40:02;15.50;99.90
34726;DHT22;20951;50.818;4.344;2022-10-22T02:42:29;15.50;99.90
34726;DHT22;20951;50.818;4.344;2022-10-22T02:44:55;15.40;99.90
34726;DHT22;20951;50.818;4.344;2022-10-22T02:47:21;15.40;99.90
34726;DHT22;20951;50.818;4.344;2022-10-22T02:49:47;15.40;99.90
34726;DHT22;20951;50.818;4.344;2022-10-22T02:52:13;15.50;99.90
34726;DHT22;20951;50.818;4.344;2022-10-22T02:54:39;15.40;99.90
34726;DHT22;20951;50.818;4.344;2022-10-22T02:57:05;15.40;99.90
34726;DHT22;20951;50.818;4.344;2022-10-22T02:59:31;15.50;99.90
34726;DHT22;20951;50.818;4.344;2022-10-22T03:01:57;15.40;99.90
34726;DHT22;20951;50.818;4.344;2022-10-22T03:04:23;15.50;99.90
34726;DHT22;20951;50.818;4.344;2022-10-22T03:06:49;15.50;99.90
34726;DHT22;20951;50.818;4.344;2022-10-22T03:09:15;15.40;99.90
34726;DHT22;20951;50.818;4.344;2022-10-22T03:11:41;15.40;99.90
34726;DHT22;20951;50.818;4.344;2022-10-22T03:14:07;15.40;99.90
34726;DHT22;20951;50.818;4.344;2022-10-22T03:16:33;15.50;99.90
34726;DHT22;20951;50.818;4.344;2022-10-22T03:18:59;15.50;99.90
34726;DHT22;20951;50.818;4.344;2022-10-22T03:21:52;15.50;99.90
34726;DHT22;20951;50.818;4.344;2022-10-22T03:24:49;15.40;99.90
34726;DHT22;20951;50.818;4.344;2022-10-22T03:27:17;15.50;99.90
34726;DHT22;20951;50.818;4.344;2022-10-22T03:29:44;15.40;99.90
34726;DHT22;20951;50.818;4.344;2022-10-22T03:32:12;15.40;99.90
34726;DHT22;20951;50.818;4.344;2022-10-22T03:34:37;15.40;99.90
34726;DHT22;20951;50.818;4.344;2022-10-22T03:37:04;15.40;99.90
34726;DHT22;20951;50.818;4.344;2022-10-22T03:39:32;15.40;99.90
34726;DHT22;20951;50.818;4.344;2022-10-22T03:41:58;15.50;99.90
34726;DHT22;20951;50.818;4.344;2022-10-22T03:44:25;15.50;99.90
34726;DHT22;20951;50.818;4.344;2022-10-22T03:46:51;15.50;99.90
34726;DHT22;20951;50.818;4.344;2022-10-22T03:49:18;15.50;99.90
34726;DHT22;20951;50.818;4.344;2022-10-22T03:51:44;15.50;99.90
34726;DHT22;20951;50.818;4.344;2022-10-22T03:54:10;15.60;99.90
34726;DHT22;20951;50.818;4.344;2022-10-22T03:56:36;15.60;99.90
34726;DHT22;20951;50.818;4.344;2022-10-22T03:59:02;15.60;99.90
34726;DHT22;20951;50.818;4.344;2022-10-22T04:01:29;15.70;99.90
34726;DHT22;20951;50.818;4.344;2022-10-22T04:03:56;15.60;99.90
34726;DHT22;20951;50.818;4.344;2022-10-22T04:06:23;15.60;99.90
34726;DHT22;20951;50.818;4.344;2022-10-22T04:08:49;15.50;99.90
34726;DHT22;20951;50.818;4.344;2022-10-22T04:11:15;15.50;99.90
34726;DHT22;20951;50.818;4.344;2022-10-22T04:13:42;15.50;99.90
34726;DHT22;20951;50.818;4.344;2022-10-22T04:16:14;15.50;99.90
34726;DHT22;20951;50.818;4.344;2022-10-22T04:18:41;15.60;99.90
34726;DHT22;20951;50.818;4.344;2022-10-22T04:21:09;15.50;99.90
34726;DHT22;20951;50.818;4.344;2022-10-22T04:23:36;15.40;99.90
34726;DHT22;20951;50.818;4.344;2022-10-22T04:26:05;15.40;99.90
34726;DHT22;20951;50.818;4.344;2022-10-22T04:28:33;15.40;99.90
34726;DHT22;20951;50.818;4.344;2022-10-22T04:30:58;15.40;99.90
34726;DHT22;20951;50.818;4.344;2022-10-22T04:33:24;15.50;99.90
34726;DHT22;20951;50.818;4.344;2022-10-22T04:35:50;15.50;99.90
34726;DHT22;20951;50.818;4.344;2022-10-22T04:38:16;15.50;99.90
34726;DHT22;20951;50.818;4.344;2022-10-22T04:40:42;15.50;99.90
34726;DHT22;20951;50.818;4.344;2022-10-22T04:43:08;15.50;99.90
34726;DHT22;20951;50.818;4.344;2022-10-22T04:45:35;15.50;99.90
34726;DHT22;20951;50.818;4.344;2022-10-22T04:48:01;15.60;99.90
34726;DHT22;20951;50.818;4.344;2022-10-22T04:50:27;15.60;99.90
34726;DHT22;20951;50.818;4.344;2022-10-22T04:52:55;15.60;99.90
34726;DHT22;20951;50.818;4.344;2022-10-22T04:55:21;15.70;99.90
34726;DHT22;20951;50.818;4.344;2022-10-22T04:57:47;15.80;99.90
34726;DHT22;20951;50.818;4.344;2022-10-22T05:00:13;15.80;99.90
34726;DHT22;20951;50.818;4.344;2022-10-22T05:02:41;15.90;99.90
34726;DHT22;20951;50.818;4.344;2022-10-22T05:05:09;16.00;99.90
34726;DHT22;20951;50.818;4.344;2022-10-22T05:07:36;16.00;99.90
34726;DHT22;20951;50.818;4.344;2022-10-22T05:10:02;15.90;99.90
34726;DHT22;20951;50.818;4.344;2022-10-22T05:12:28;15.90;99.90
34726;DHT22;20951;50.818;4.344;2022-10-22T05:14:55;15.80;99.90
34726;DHT22;20951;50.818;4.344;2022-10-22T05:17:21;15.80;99.90
34726;DHT22;20951;50.818;4.344;2022-10-22T05:19:47;15.90;99.90
34726;DHT22;20951;50.818;4.344;2022-10-22T05:22:13;15.90;99.90
34726;DHT22;20951;50.818;4.344;2022-10-22T05:24:39;16.10;99.90
34726;DHT22;20951;50.818;4.344;2022-10-22T05:27:05;15.90;99.90
34726;DHT22;20951;50.818;4.344;2022-10-22T05:29:31;15.90;99.90
34726;DHT22;20951;50.818;4.344;2022-10-22T05:31:57;16.00;99.90
34726;DHT22;20951;50.818;4.344;2022-10-22T05:34:23;16.10;99.90
34726;DHT22;20951;50.818;4.344;2022-10-22T05:36:49;16.10;99.90
34726;DHT22;20951;50.818;4.344;2022-10-22T05:39:15;16.30;99.90
34726;DHT22;20951;50.818;4.344;2022-10-22T05:41:41;16.20;99.90
34726;DHT22;20951;50.818;4.344;2022-10-22T05:44:09;16.10;99.90
34726;DHT22;20951;50.818;4.344;2022-10-22T05:46:35;16.20;99.90
34726;DHT22;20951;50.818;4.344;2022-10-22T05:49:04;16.20;99.90
34726;DHT22;20951;50.818;4.344;2022-10-22T05:51:32;16.20;99.90
34726;DHT22;20951;50.818;4.344;2022-10-22T05:54:00;16.30;99.90
34726;DHT22;20951;50.818;4.344;2022-10-22T05:56:28;16.40;99.90
34726;DHT22;20951;50.818;4.344;2022-10-22T05:58:55;16.30;99.90
34726;DHT22;20951;50.818;4.344;2022-10-22T06:01:24;16.10;99.90
34726;DHT22;20951;50.818;4.344;2022-10-22T06:03:54;16.00;99.90
34726;DHT22;20951;50.818;4.344;2022-10-22T06:06:28;16.00;99.90
34726;DHT22;20951;50.818;4.344;2022-10-22T06:08:54;16.00;99.90
34726;DHT22;20951;50.818;4.344;2022-10-22T06:11:22;16.00;99.90
34726;DHT22;20951;50.818;4.344;2022-10-22T06:13:48;16.00;99.90
34726;DHT22;20951;50.818;4.344;2022-10-22T06:16:15;16.00;99.90
34726;DHT22;20951;50.818;4.344;2022-10-22T06:18:41;16.10;99.90
34726;DHT22;20951;50.818;4.344;2022-10-22T06:21:09;16.10;99.90
34726;DHT22;20951;50.818;4.344;2022-10-22T06:23:37;16.10;99.90
34726;DHT22;20951;50.818;4.344;2022-10-22T06:26:05;16.00;99.90
34726;DHT22;20951;50.818;4.344;2022-10-22T06:28:31;16.00;99.90
34726;DHT22;20951;50.818;4.344;2022-10-22T06:30:59;15.90;99.90
34726;DHT22;20951;50.818;4.344;2022-10-22T06:33:26;15.70;99.90
34726;DHT22;20951;50.818;4.344;2022-10-22T06:35:52;15.80;99.90
34726;DHT22;20951;50.818;4.344;2022-10-22T06:38:18;15.90;99.90
34726;DHT22;20951;50.818;4.344;2022-10-22T06:40:44;16.00;99.90
34726;DHT22;20951;50.818;4.344;2022-10-22T06:43:11;16.10;99.90
34726;DHT22;20951;50.818;4.344;2022-10-22T06:45:37;16.10;99.90
34726;DHT22;20951;50.818;4.344;2022-10-22T06:48:04;16.00;99.90
34726;DHT22;20951;50.818;4.344;2022-10-22T06:50:30;16.00;99.90
34726;DHT22;20951;50.818;4.344;2022-10-22T06:52:56;16.10;99.90
34726;DHT22;20951;50.818;4.344;2022-10-22T06:55:22;16.00;99.90
34726;DHT22;20951;50.818;4.344;2022-10-22T06:57:48;15.80;99.90
34726;DHT22;20951;50.818;4.344;2022-10-22T07:00:14;16.00;99.90
34726;DHT22;20951;50.818;4.344;2022-10-22T07:02:40;16.10;99.90
34726;DHT22;20951;50.818;4.344;2022-10-22T07:05:07;16.10;99.90
34726;DHT22;20951;50.818;4.344;2022-10-22T07:07:33;16.10;99.90
34726;DHT22;20951;50.818;4.344;2022-10-22T07:09:59;16.20;99.90
34726;DHT22;20951;50.818;4.344;2022-10-22T07:12:25;16.30;99.90
34726;DHT22;20951;50.818;4.344;2022-10-22T07:14:51;16.30;99.90
34726;DHT22;20951;50.818;4.344;2022-10-22T07:17:17;16.30;99.90
34726;DHT22;20951;50.818;4.344;2022-10-22T07:19:43;16.30;99.90
34726;DHT22;20951;50.818;4.344;2022-10-22T07:22:09;16.30;99.90
34726;DHT22;20951;50.818;4.344;2022-10-22T07:24:35;16.20;99.90
34726;DHT22;20951;50.818;4.344;2022-10-22T07:27:01;16.20;99.90
34726;DHT22;20951;50.818;4.344;2022-10-22T07:29:27;16.30;99.90
34726;DHT22;20951;50.818;4.344;2022-10-22T07:31:53;16.20;99.90
34726;DHT22;20951;50.818;4.344;2022-10-22T07:34:19;16.40;99.90
34726;DHT22;20951;50.818;4.344;2022-10-22T07:36:44;16.40;99.90
34726;DHT22;20951;50.818;4.344;2022-10-22T07:39:10;16.70;99.90
34726;DHT22;20951;50.818;4.344;2022-10-22T07:41:36;16.80;99.90
34726;DHT22;20951;50.818;4.344;2022-10-22T07:44:03;16.70;99.90
34726;DHT22;20951;50.818;4.344;2022-10-22T07:46:29;16.70;99.90
34726;DHT22;20951;50.818;4.344;2022-10-22T07:48:55;16.70;99.90
34726;DHT22;20951;50.818;4.344;2022-10-22T07:51:21;16.70;99.90
34726;DHT22;20951;50.818;4.344;2022-10-22T07:53:47;16.70;99.90
34726;DHT22;20951;50.818;4.344;2022-10-22T07:56:13;16.70;99.90
34726;DHT22;20951;50.818;4.344;2022-10-22T07:58:39;16.80;99.90
34726;DHT22;20951;50.818;4.344;2022-10-22T08:01:06;16.80;99.90
34726;DHT22;20951;50.818;4.344;2022-10-22T08:03:35;16.80;99.90
34726;DHT22;20951;50.818;4.344;2022-10-22T08:06:01;16.80;99.90
34726;DHT22;20951;50.818;4.344;2022-10-22T08:08:27;17.10;99.90
34726;DHT22;20951;50.818;4.344;2022-10-22T08:10:56;17.20;99.90
34726;DHT22;20951;50.818;4.344;2022-10-22T08:13:23;17.40;99.90
34726;DHT22;20951;50.818;4.344;2022-10-22T08:15:50;17.40;99.90
34726;DHT22;20951;50.818;4.344;2022-10-22T08:18:16;17.20;99.90
34726;DHT22;20951;50.818;4.344;2022-10-22T08:20:42;17.20;99.90
34726;DHT22;20951;50.818;4.344;2022-10-22T08:23:09;17.00;99.90
34726;DHT22;20951;50.818;4.344;2022-10-22T08:25:35;17.00;99.90
34726;DHT22;20951;50.818;4.344;2022-10-22T08:28:01;17.20;99.90
34726;DHT22;20951;50.818;4.344;2022-10-22T08:30:27;17.40;99.90
34726;DHT22;20951;50.818;4.344;2022-10-22T08:32:54;17.30;99.90
34726;DHT22;20951;50.818;4.344;2022-10-22T08:35:20;17.30;99.90
34726;DHT22;20951;50.818;4.344;2022-10-22T08:37:46;17.30;99.90
34726;DHT22;20951;50.818;4.344;2022-10-22T08:40:31;17.40;99.90
34726;DHT22;20951;50.818;4.344;2022-10-22T08:43:23;17.50;99.90
34726;DHT22;20951;50.818;4.344;2022-10-22T08:46:20;17.20;99.90
34726;DHT22;20951;50.818;4.344;2022-10-22T08:48:57;17.30;99.90
34726;DHT22;20951;50.818;4.344;2022-10-22T08:51:28;17.40;99.90
34726;DHT22;20951;50.818;4.344;2022-10-22T08:56:44;17.20;99.90
34726;DHT22;20951;50.818;4.344;2022-10-22T09:01:40;17.30;99.90
34726;DHT22;20951;50.818;4.344;2022-10-22T09:04:10;17.50;99.90
34726;DHT22;20951;50.818;4.344;2022-10-22T09:06:39;17.60;99.90
34726;DHT22;20951;50.818;4.344;2022-10-22T09:09:11;17.90;99.90
34726;DHT22;20951;50.818;4.344;2022-10-22T09:11:39;17.60;99.90
34726;DHT22;20951;50.818;4.344;2022-10-22T09:14:15;17.90;99.90
34726;DHT22;20951;50.818;4.344;2022-10-22T09:19:27;18.30;99.90
34726;DHT22;20951;50.818;4.344;2022-10-22T09:22:19;18.40;99.90
34726;DHT22;20951;50.818;4.344;2022-10-22T09:25:18;18.20;99.90
34726;DHT22;20951;50.818;4.344;2022-10-22T09:27:42;17.70;99.90
34726;DHT22;20951;50.818;4.344;2022-10-22T09:30:20;17.80;99.90
34726;DHT22;20951;50.818;4.344;2022-10-22T09:32:49;17.60;99.90
34726;DHT22;20951;50.818;4.344;2022-10-22T09:35:21;18.00;99.90
34726;DHT22;20951;50.818;4.344;2022-10-22T09:37:52;18.10;99.90
34726;DHT22;20951;50.818;4.344;2022-10-22T09:40:19;18.30;99.90
34726;DHT22;20951;50.818;4.344;2022-10-22T09:42:46;18.50;99.90
34726;DHT22;20951;50.818;4.344;2022-10-22T09:45:21;18.30;99.90
34726;DHT22;20951;50.818;4.344;2022-10-22T09:47:48;18.30;99.90
34726;DHT22;20951;50.818;4.344;2022-10-22T09:53:25;17.80;99.90
34726;DHT22;20951;50.818;4.344;2022-10-22T09:55:59;17.80;99.90
34726;DHT22;20951;50.818;4.344;2022-10-22T09:58:26;17.80;99.90
34726;DHT22;20951;50.818;4.344;2022-10-22T10:00:59;17.80;99.90
34726;DHT22;20951;50.818;4.344;2022-10-22T10:03:28;18.00;99.90
34726;DHT22;20951;50.818;4.344;2022-10-22T10:05:58;18.00;99.90
34726;DHT22;20951;50.818;4.344;2022-10-22T10:08:24;18.10;99.90
34726;DHT22;20951;50.818;4.344;2022-10-22T10:11:15;18.50;99.90
34726;DHT22;20951;50.818;4.344;2022-10-22T10:13:53;18.30;99.90
34726;DHT22;20951;50.818;4.344;2022-10-22T10:16:41;18.20;99.90
34726;DHT22;20951;50.818;4.344;2022-10-22T10:19:25;18.10;99.90
34726;DHT22;20951;50.818;4.344;2022-10-22T10:27:42;18.60;99.90
34726;DHT22;20951;50.818;4.344;2022-10-22T10:30:19;18.90;99.90
34726;DHT22;20951;50.818;4.344;2022-10-22T10:32:48;19.10;99.90
34726;DHT22;20951;50.818;4.344;2022-10-22T10:35:26;19.30;99.90
34726;DHT22;20951;50.818;4.344;2022-10-22T10:46:34;19.80;99.90
34726;DHT22;20951;50.818;4.344;2022-10-22T10:49:22;20.10;99.90
34726;DHT22;20951;50.818;4.344;2022-10-22T10:57:17;20.30;99.90
34726;DHT22;20951;50.818;4.344;2022-10-22T11:00:14;20.50;99.90
34726;DHT22;20951;50.818;4.344;2022-10-22T11:06:05;21.20;99.90
34726;DHT22;20951;50.818;4.344;2022-10-22T11:08:40;21.50;99.90
34726;DHT22;20951;50.818;4.344;2022-10-22T11:11:11;21.10;99.90
34726;DHT22;20951;50.818;4.344;2022-10-22T11:13:52;21.10;99.90
34726;DHT22;20951;50.818;4.344;2022-10-22T11:19:04;20.80;99.90
34726;DHT22;20951;50.818;4.344;2022-10-22T11:21:57;21.00;99.90
34726;DHT22;20951;50.818;4.344;2022-10-22T11:24:35;21.30;99.90
34726;DHT22;20951;50.818;4.344;2022-10-22T11:29:53;21.80;99.90
34726;DHT22;20951;50.818;4.344;2022-10-22T11:32:22;22.40;99.90
34726;DHT22;20951;50.818;4.344;2022-10-22T11:34:55;22.50;99.90
34726;DHT22;20951;50.818;4.344;2022-10-22T11:37:24;22.10;99.90
34726;DHT22;20951;50.818;4.344;2022-10-22T11:39:54;21.80;99.90
34726;DHT22;20951;50.818;4.344;2022-10-22T11:42:36;21.50;99.90
34726;DHT22;20951;50.818;4.344;2022-10-22T11:45:22;21.60;99.90
34726;DHT22;20951;50.818;4.344;2022-10-22T11:55:48;20.60;99.90
34726;DHT22;20951;50.818;4.344;2022-10-22T12:14:13;21.60;99.90
34726;DHT22;20951;50.818;4.344;2022-10-22T12:16:48;21.60;99.90
34726;DHT22;20951;50.818;4.344;2022-10-22T12:19:30;21.40;99.90
34726;DHT22;20951;50.818;4.344;2022-10-22T12:22:12;21.60;99.90
34726;DHT22;20951;50.818;4.344;2022-10-22T12:24:45;22.00;99.90
34726;DHT22;20951;50.818;4.344;2022-10-22T12:27:20;21.90;99.90
34726;DHT22;20951;50.818;4.344;2022-10-22T12:29:48;22.50;99.90
34726;DHT22;20951;50.818;4.344;2022-10-22T12:32:15;22.70;99.90
34726;DHT22;20951;50.818;4.344;2022-10-22T12:34:46;23.10;99.90
34726;DHT22;20951;50.818;4.344;2022-10-22T12:37:14;23.20;99.90
34726;DHT22;20951;50.818;4.344;2022-10-22T12:39:40;22.90;99.90
34726;DHT22;20951;50.818;4.344;2022-10-22T12:42:11;22.70;99.90
34726;DHT22;20951;50.818;4.344;2022-10-22T12:44:37;23.00;99.90
34726;DHT22;20951;50.818;4.344;2022-10-22T12:47:05;23.20;99.90
34726;DHT22;20951;50.818;4.344;2022-10-22T12:49:40;24.20;99.90
34726;DHT22;20951;50.818;4.344;2022-10-22T12:52:16;24.80;99.90
34726;DHT22;20951;50.818;4.344;2022-10-22T12:54:47;25.40;99.90
34726;DHT22;20951;50.818;4.344;2022-10-22T12:57:16;26.20;99.90
34726;DHT22;20951;50.818;4.344;2022-10-22T12:59:46;25.70;99.90
34726;DHT22;20951;50.818;4.344;2022-10-22T13:02:25;24.90;99.90
34726;DHT22;20951;50.818;4.344;2022-10-22T13:07:42;23.20;99.90
34726;DHT22;20951;50.818;4.344;2022-10-22T13:10:25;23.90;99.90
34726;DHT22;20951;50.818;4.344;2022-10-22T13:12:55;24.20;99.90
34726;DHT22;20951;50.818;4.344;2022-10-22T13:20:29;23.70;99.90
34726;DHT22;20951;50.818;4.344;2022-10-22T13:22:58;23.00;99.90
34726;DHT22;20951;50.818;4.344;2022-10-22T13:25:35;22.40;99.90
34726;DHT22;20951;50.818;4.344;2022-10-22T13:28:20;21.90;99.90
34726;DHT22;20951;50.818;4.344;2022-10-22T13:30:57;22.00;99.90
34726;DHT22;20951;50.818;4.344;2022-10-22T13:33:24;22.00;99.90
34726;DHT22;20951;50.818;4.344;2022-10-22T13:35:52;22.30;99.90
34726;DHT22;20951;50.818;4.344;2022-10-22T13:38:20;22.10;99.90
34726;DHT22;20951;50.818;4.344;2022-10-22T13:40:46;22.10;99.90
34726;DHT22;20951;50.818;4.344;2022-10-22T13:43:13;22.30;99.90
34726;DHT22;20951;50.818;4.344;2022-10-22T13:45:39;22.10;99.90
34726;DHT22;20951;50.818;4.344;2022-10-22T13:48:05;21.80;99.90
34726;DHT22;20951;50.818;4.344;2022-10-22T13:50:31;21.50;99.90
34726;DHT22;20951;50.818;4.344;2022-10-22T13:53:00;21.70;99.90
34726;DHT22;20951;50.818;4.344;2022-10-22T13:55:28;21.50;99.90
34726;DHT22;20951;50.818;4.344;2022-10-22T13:58:05;21.50;99.90
34726;DHT22;20951;50.818;4.344;2022-10-22T14:00:37;21.70;99.90
34726;DHT22;20951;50.818;4.344;2022-10-22T14:03:04;21.50;99.90
34726;DHT22;20951;50.818;4.344;2022-10-22T14:05:33;21.20;99.90
34726;DHT22;20951;50.818;4.344;2022-10-22T14:08:01;21.20;99.90
34726;DHT22;20951;50.818;4.344;2022-10-22T14:10:33;21.00;99.90
34726;DHT22;20951;50.818;4.344;2022-10-22T14:13:02;21.00;99.90
34726;DHT22;20951;50.818;4.344;2022-10-22T14:15:30;20.90;99.90
34726;DHT22;20951;50.818;4.344;2022-10-22T14:17:59;20.80;99.90
34726;DHT22;20951;50.818;4.344;2022-10-22T14:20:32;20.80;99.90
34726;DHT22;20951;50.818;4.344;2022-10-22T14:25:58;21.10;99.90
34726;DHT22;20951;50.818;4.344;2022-10-22T14:28:27;20.90;99.90
34726;DHT22;20951;50.818;4.344;2022-10-22T14:30:56;20.80;99.90
34726;DHT22;20951;50.818;4.344;2022-10-22T14:33:27;20.90;99.90
34726;DHT22;20951;50.818;4.344;2022-10-22T14:35:56;20.80;99.90
34726;DHT22;20951;50.818;4.344;2022-10-22T14:38:26;20.80;99.90
34726;DHT22;20951;50.818;4.344;2022-10-22T14:40:54;20.90;99.90
34726;DHT22;20951;50.818;4.344;2022-10-22T14:43:27;20.90;99.90
34726;DHT22;20951;50.818;4.344;2022-10-22T14:45:55;20.90;99.90
34726;DHT22;20951;50.818;4.344;2022-10-22T14:48:24;20.90;99.90
34726;DHT22;20951;50.818;4.344;2022-10-22T14:50:53;20.80;99.90
34726;DHT22;20951;50.818;4.344;2022-10-22T14:53:22;20.80;99.90
34726;DHT22;20951;50.818;4.344;2022-10-22T14:55:51;20.70;99.90
34726;DHT22;20951;50.818;4.344;2022-10-22T14:58:22;20.70;99.90
34726;DHT22;20951;50.818;4.344;2022-10-22T15:00:50;20.40;99.90
34726;DHT22;20951;50.818;4.344;2022-10-22T15:03:19;20.40;99.90
34726;DHT22;20951;50.818;4.344;2022-10-22T15:05:52;20.40;99.90
34726;DHT22;20951;50.818;4.344;2022-10-22T15:08:21;20.40;99.90
34726;DHT22;20951;50.818;4.344;2022-10-22T15:11:10;20.20;99.90
34726;DHT22;20951;50.818;4.344;2022-10-22T15:13:38;20.20;99.90
34726;DHT22;20951;50.818;4.344;2022-10-22T15:16:08;20.20;99.90
34726;DHT22;20951;50.818;4.344;2022-10-22T15:18:38;20.20;99.90
34726;DHT22;20951;50.818;4.344;2022-10-22T15:21:12;20.10;99.90
34726;DHT22;20951;50.818;4.344;2022-10-22T15:23:41;20.00;99.90
34726;DHT22;20951;50.818;4.344;2022-10-22T15:26:09;20.10;99.90
34726;DHT22;20951;50.818;4.344;2022-10-22T15:28:39;20.30;99.90
34726;DHT22;20951;50.818;4.344;2022-10-22T15:31:07;20.40;99.90
34726;DHT22;20951;50.818;4.344;2022-10-22T15:33:36;20.40;99.90
34726;DHT22;20951;50.818;4.344;2022-10-22T15:36:14;20.30;99.90
34726;DHT22;20951;50.818;4.344;2022-10-22T15:38:43;20.20;99.90
34726;DHT22;20951;50.818;4.344;2022-10-22T15:41:13;20.10;99.90
34726;DHT22;20951;50.818;4.344;2022-10-22T15:43:42;20.00;99.90
34726;DHT22;20951;50.818;4.344;2022-10-22T15:46:17;20.10;99.90
34726;DHT22;20951;50.818;4.344;2022-10-22T15:48:46;20.00;99.90
34726;DHT22;20951;50.818;4.344;2022-10-22T15:51:16;20.10;99.90
34726;DHT22;20951;50.818;4.344;2022-10-22T15:53:54;20.10;99.90
34726;DHT22;20951;50.818;4.344;2022-10-22T15:56:25;20.10;99.90
34726;DHT22;20951;50.818;4.344;2022-10-22T15:58:54;20.00;99.90
34726;DHT22;20951;50.818;4.344;2022-10-22T16:01:24;20.10;99.90
34726;DHT22;20951;50.818;4.344;2022-10-22T16:03:52;20.10;99.90
34726;DHT22;20951;50.818;4.344;2022-10-22T16:06:34;20.00;99.90
34726;DHT22;20951;50.818;4.344;2022-10-22T16:09:04;19.80;99.90
34726;DHT22;20951;50.818;4.344;2022-10-22T16:11:32;19.80;99.90
34726;DHT22;20951;50.818;4.344;2022-10-22T16:14:01;19.60;99.90
34726;DHT22;20951;50.818;4.344;2022-10-22T16:16:31;19.50;99.90
34726;DHT22;20951;50.818;4.344;2022-10-22T16:18:59;19.50;99.90
34726;DHT22;20951;50.818;4.344;2022-10-22T16:21:28;19.60;99.90
34726;DHT22;20951;50.818;4.344;2022-10-22T16:23:58;19.60;99.90
34726;DHT22;20951;50.818;4.344;2022-10-22T16:26:28;19.70;99.90
34726;DHT22;20951;50.818;4.344;2022-10-22T16:28:56;19.70;99.90
34726;DHT22;20951;50.818;4.344;2022-10-22T16:31:25;19.50;99.90
34726;DHT22;20951;50.818;4.344;2022-10-22T16:33:54;19.50;99.90
34726;DHT22;20951;50.818;4.344;2022-10-22T16:36:22;19.30;99.90
34726;DHT22;20951;50.818;4.344;2022-10-22T16:38:50;19.30;99.90
34726;DHT22;20951;50.818;4.344;2022-10-22T16:41:24;19.10;99.90
34726;DHT22;20951;50.818;4.344;2022-10-22T16:44:00;19.00;99.90
34726;DHT22;20951;50.818;4.344;2022-10-22T16:46:29;19.00;99.90
34726;DHT22;20951;50.818;4.344;2022-10-22T16:48:58;18.80;99.90
34726;DHT22;20951;50.818;4.344;2022-10-22T16:51:28;18.90;99.90
34726;DHT22;20951;50.818;4.344;2022-10-22T16:53:57;19.00;99.90
34726;DHT22;20951;50.818;4.344;2022-10-22T16:56:25;18.90;99.90
34726;DHT22;20951;50.818;4.344;2022-10-22T16:58:55;18.90;99.90
34726;DHT22;20951;50.818;4.344;2022-10-22T17:01:25;18.80;99.90
34726;DHT22;20951;50.818;4.344;2022-10-22T17:03:57;18.80;99.90
34726;DHT22;20951;50.818;4.344;2022-10-22T17:06:25;18.70;99.90
34726;DHT22;20951;50.818;4.344;2022-10-22T17:08:55;18.70;99.90
34726;DHT22;20951;50.818;4.344;2022-10-22T17:11:24;18.70;99.90
34726;DHT22;20951;50.818;4.344;2022-10-22T17:13:53;18.70;99.90
34726;DHT22;20951;50.818;4.344;2022-10-22T17:16:23;18.50;99.90
34726;DHT22;20951;50.818;4.344;2022-10-22T17:18:52;18.60;99.90
34726;DHT22;20951;50.818;4.344;2022-10-22T17:21:21;18.50;99.90
34726;DHT22;20951;50.818;4.344;2022-10-22T17:23:54;18.50;99.90
34726;DHT22;20951;50.818;4.344;2022-10-22T17:26:25;18.40;99.90
34726;DHT22;20951;50.818;4.344;2022-10-22T17:28:54;18.30;99.90
34726;DHT22;20951;50.818;4.344;2022-10-22T17:31:26;18.20;99.90
34726;DHT22;20951;50.818;4.344;2022-10-22T17:33:55;18.20;99.90